Terminal Aerodrome Forecast
Issued by NWS

Home | Current Version | Previous Version | Text Only | Print | Product List | Glossary On
Versions: 1 2 3 4 5 6 7 8 9 10 11 12 13 14 15 16 17 18 19 20 21 22 23 24 25 26 27 28 29 30 31 32 33 34 35 36 37 38 39 40 41 42 43 44 45
000
FTUS45 KBOU 120831 AAA
TAFBJC
TAF AMD
KBJC 120831Z 1209/1306 36007KT P6SM SCT010 BKN035 OVC110
      TEMPO 1211/1214 BKN010
     FM121600 03008KT P6SM SCT070 BKN140
      TEMPO 1220/1224 VRB15G30KT 5SM TSRA BKN060CB
     FM130000 31010KT P6SM VCTS SCT060CB BKN120 PROB30 1300/1303
      -SHRA BKN060=

USA.gov is the U.S. government's official web portal to all federal, state and local government web resources and services.